KMTW/MTW METAR and TAF weather

Enter ICAO airport designator
Station Type Date Time Source
KMTW METAR 2019/05/23 18:56 UTC NOAA

KMTW 231856Z AUTO 27018G24KT 10SM OVC044 18/09 A2996 RMK AO2 PK WND 28028/1821 SLP166 T01780094


Station Type Date Time Source
KMTW Decoded METAR 2019/05/23 18:56 UTC NOAA

Manitowoc, Manitowoc County Airport, WI, United States (KMTW) 44-08N 087-41W
May 23, 2019 - 02:56 PM EDT / 2019.05.23 1856 UTC
Wind: from the W (270 degrees) at 21 MPH (18 KT) gusting to 28 MPH (24 KT):0
Visibility: 10 mile(s):0
Sky conditions: overcast
Temperature: 64.0 F (17.8 C)
Dew Point: 48.9 F (9.4 C)
Relative Humidity: 57%
Pressure (altimeter): 29.96 in. Hg (1014 hPa)
ob: KMTW 231856Z AUTO 27018G24KT 10SM OVC044 18/09 A2996 RMK AO2 PK WND 28028/1821 SLP166 T01780094
cycle: 19

Station Type Date Time Source
KMTW TAF 2019/05/23 19:36 UTC NOAA

TAF
AMD KMTW 231834Z 2319/2418 27015G25KT P6SM SCT030 BKN045
FM232200 27012G19KT P6SM SCT050
FM240000 29007KT P6SM SCT150
FM241100 06005KT P6SM BKN070
FM241400 05006KT 6SM -SHRA OVC030
FM241600 09008KT 5SM -SHRA OVC022

Example: see airport list